sensor_id;sensor_type;location;lat;lon;timestamp;P1;durP1;ratioP1;P2;durP2;ratioP2
20846;SDS011;10584;50.854;12.902;2023-04-06T00:01:18;13.37;;;6.27;;
20846;SDS011;10584;50.854;12.902;2023-04-06T00:06:40;18.03;;;6.87;;
20846;SDS011;10584;50.854;12.902;2023-04-06T00:12:01;14.03;;;6.33;;
20846;SDS011;10584;50.854;12.902;2023-04-06T00:17:23;16.23;;;7.17;;
20846;SDS011;10584;50.854;12.902;2023-04-06T00:22:44;14.17;;;6.77;;
20846;SDS011;10584;50.854;12.902;2023-04-06T00:28:06;14.33;;;7.40;;
20846;SDS011;10584;50.854;12.902;2023-04-06T00:33:27;16.90;;;6.73;;
20846;SDS011;10584;50.854;12.902;2023-04-06T00:38:49;17.97;;;8.20;;
20846;SDS011;10584;50.854;12.902;2023-04-06T00:44:11;14.10;;;7.57;;
20846;SDS011;10584;50.854;12.902;2023-04-06T00:49:33;18.33;;;8.17;;
20846;SDS011;10584;50.854;12.902;2023-04-06T00:54:55;15.17;;;7.63;;
20846;SDS011;10584;50.854;12.902;2023-04-06T01:00:16;12.57;;;7.13;;
20846;SDS011;10584;50.854;12.902;2023-04-06T01:05:40;12.53;;;7.43;;
20846;SDS011;10584;50.854;12.902;2023-04-06T01:11:17;16.27;;;7.77;;
20846;SDS011;10584;50.854;12.902;2023-04-06T01:16:40;17.33;;;7.97;;
20846;SDS011;10584;50.854;12.902;2023-04-06T01:22:06;13.63;;;7.13;;
20846;SDS011;10584;50.854;12.902;2023-04-06T01:27:37;13.90;;;7.07;;
20846;SDS011;10584;50.854;12.902;2023-04-06T01:33:18;16.53;;;7.40;;
20846;SDS011;10584;50.854;12.902;2023-04-06T01:38:55;18.97;;;7.23;;
20846;SDS011;10584;50.854;12.902;2023-04-06T01:44:24;12.77;;;7.33;;
20846;SDS011;10584;50.854;12.902;2023-04-06T01:49:57;17.10;;;7.53;;
20846;SDS011;10584;50.854;12.902;2023-04-06T01:55:23;14.00;;;6.70;;
20846;SDS011;10584;50.854;12.902;2023-04-06T02:01:05;19.27;;;8.23;;
20846;SDS011;10584;50.854;12.902;2023-04-06T02:06:40;14.80;;;7.07;;
20846;SDS011;10584;50.854;12.902;2023-04-06T02:12:04;14.43;;;7.23;;
20846;SDS011;10584;50.854;12.902;2023-04-06T02:17:27;17.40;;;7.80;;
20846;SDS011;10584;50.854;12.902;2023-04-06T02:22:48;14.73;;;7.30;;
20846;SDS011;10584;50.854;12.902;2023-04-06T02:28:10;15.63;;;8.53;;
20846;SDS011;10584;50.854;12.902;2023-04-06T02:33:31;16.13;;;8.47;;
20846;SDS011;10584;50.854;12.902;2023-04-06T02:38:53;16.07;;;7.53;;
20846;SDS011;10584;50.854;12.902;2023-04-06T02:44:15;17.20;;;7.77;;
20846;SDS011;10584;50.854;12.902;2023-04-06T02:49:37;15.47;;;8.03;;
20846;SDS011;10584;50.854;12.902;2023-04-06T02:54:58;18.20;;;8.17;;
20846;SDS011;10584;50.854;12.902;2023-04-06T03:00:22;14.23;;;8.03;;
20846;SDS011;10584;50.854;12.902;2023-04-06T03:05:44;15.63;;;7.10;;
20846;SDS011;10584;50.854;12.902;2023-04-06T03:11:06;13.90;;;7.77;;
20846;SDS011;10584;50.854;12.902;2023-04-06T03:16:32;14.57;;;7.17;;
20846;SDS011;10584;50.854;12.902;2023-04-06T03:21:55;15.87;;;8.23;;
20846;SDS011;10584;50.854;12.902;2023-04-06T03:27:17;14.80;;;8.20;;
20846;SDS011;10584;50.854;12.902;2023-04-06T03:32:40;17.60;;;8.50;;
20846;SDS011;10584;50.854;12.902;2023-04-06T03:38:02;15.83;;;8.67;;
20846;SDS011;10584;50.854;12.902;2023-04-06T03:43:24;15.43;;;7.60;;
20846;SDS011;10584;50.854;12.902;2023-04-06T03:48:48;16.97;;;8.33;;
20846;SDS011;10584;50.854;12.902;2023-04-06T03:54:12;15.47;;;8.43;;
20846;SDS011;10584;50.854;12.902;2023-04-06T03:59:33;15.37;;;8.50;;
20846;SDS011;10584;50.854;12.902;2023-04-06T04:04:55;13.17;;;7.30;;
20846;SDS011;10584;50.854;12.902;2023-04-06T04:10:17;15.60;;;7.97;;
20846;SDS011;10584;50.854;12.902;2023-04-06T04:15:39;15.50;;;8.30;;
20846;SDS011;10584;50.854;12.902;2023-04-06T04:21:01;20.83;;;8.87;;
20846;SDS011;10584;50.854;12.902;2023-04-06T04:26:23;16.97;;;8.20;;
20846;SDS011;10584;50.854;12.902;2023-04-06T04:31:47;16.93;;;8.30;;
20846;SDS011;10584;50.854;12.902;2023-04-06T04:37:10;18.53;;;8.73;;
20846;SDS011;10584;50.854;12.902;2023-04-06T04:42:42;18.50;;;8.97;;
20846;SDS011;10584;50.854;12.902;2023-04-06T04:48:11;19.67;;;9.23;;
20846;SDS011;10584;50.854;12.902;2023-04-06T04:53:44;17.40;;;8.23;;
20846;SDS011;10584;50.854;12.902;2023-04-06T04:59:12;20.17;;;9.57;;
20846;SDS011;10584;50.854;12.902;2023-04-06T05:04:41;20.20;;;9.10;;
20846;SDS011;10584;50.854;12.902;2023-04-06T05:10:09;17.17;;;8.70;;
20846;SDS011;10584;50.854;12.902;2023-04-06T05:15:41;16.90;;;8.87;;
20846;SDS011;10584;50.854;12.902;2023-04-06T05:21:25;21.23;;;9.63;;
20846;SDS011;10584;50.854;12.902;2023-04-06T05:26:56;19.13;;;9.47;;
20846;SDS011;10584;50.854;12.902;2023-04-06T05:32:17;19.13;;;9.77;;
20846;SDS011;10584;50.854;12.902;2023-04-06T05:37:43;20.77;;;10.13;;
20846;SDS011;10584;50.854;12.902;2023-04-06T05:43:07;17.03;;;10.13;;
20846;SDS011;10584;50.854;12.902;2023-04-06T05:48:31;19.83;;;10.40;;
20846;SDS011;10584;50.854;12.902;2023-04-06T05:53:54;18.87;;;9.73;;
20846;SDS011;10584;50.854;12.902;2023-04-06T05:59:16;26.50;;;10.27;;
20846;SDS011;10584;50.854;12.902;2023-04-06T06:04:38;20.97;;;10.87;;
20846;SDS011;10584;50.854;12.902;2023-04-06T06:09:59;20.43;;;10.43;;
20846;SDS011;10584;50.854;12.902;2023-04-06T06:15:25;21.77;;;11.10;;
20846;SDS011;10584;50.854;12.902;2023-04-06T06:20:46;22.73;;;11.20;;
20846;SDS011;10584;50.854;12.902;2023-04-06T06:26:08;25.77;;;12.23;;
20846;SDS011;10584;50.854;12.902;2023-04-06T06:31:30;27.73;;;12.73;;
20846;SDS011;10584;50.854;12.902;2023-04-06T06:36:51;30.93;;;12.37;;
20846;SDS011;10584;50.854;12.902;2023-04-06T06:42:16;26.73;;;12.40;;
20846;SDS011;10584;50.854;12.902;2023-04-06T06:47:57;26.53;;;12.03;;
20846;SDS011;10584;50.854;12.902;2023-04-06T06:53:19;28.10;;;11.53;;
20846;SDS011;10584;50.854;12.902;2023-04-06T06:58:41;26.17;;;11.50;;
20846;SDS011;10584;50.854;12.902;2023-04-06T07:04:03;28.23;;;12.60;;
20846;SDS011;10584;50.854;12.902;2023-04-06T07:09:25;22.83;;;11.90;;
20846;SDS011;10584;50.854;12.902;2023-04-06T07:14:47;20.27;;;10.73;;
20846;SDS011;10584;50.854;12.902;2023-04-06T07:20:08;16.10;;;8.93;;
20846;SDS011;10584;50.854;12.902;2023-04-06T07:25:30;17.37;;;7.77;;
20846;SDS011;10584;50.854;12.902;2023-04-06T07:30:52;17.27;;;8.00;;
20846;SDS011;10584;50.854;12.902;2023-04-06T07:36:15;16.63;;;8.10;;
20846;SDS011;10584;50.854;12.902;2023-04-06T07:41:36;16.83;;;8.00;;
20846;SDS011;10584;50.854;12.902;2023-04-06T07:46:58;16.90;;;8.33;;
20846;SDS011;10584;50.854;12.902;2023-04-06T07:52:21;18.23;;;7.87;;
20846;SDS011;10584;50.854;12.902;2023-04-06T07:57:43;20.10;;;7.97;;
20846;SDS011;10584;50.854;12.902;2023-04-06T08:03:04;13.03;;;7.33;;
20846;SDS011;10584;50.854;12.902;2023-04-06T08:08:26;11.93;;;6.43;;
20846;SDS011;10584;50.854;12.902;2023-04-06T08:13:47;13.47;;;6.30;;
20846;SDS011;10584;50.854;12.902;2023-04-06T08:19:09;13.33;;;6.83;;
20846;SDS011;10584;50.854;12.902;2023-04-06T08:24:31;12.73;;;6.77;;
20846;SDS011;10584;50.854;12.902;2023-04-06T08:29:52;10.53;;;6.10;;
20846;SDS011;10584;50.854;12.902;2023-04-06T08:35:14;10.40;;;6.13;;
20846;SDS011;10584;50.854;12.902;2023-04-06T08:40:39;13.10;;;6.37;;
20846;SDS011;10584;50.854;12.902;2023-04-06T08:46:01;12.67;;;6.83;;
20846;SDS011;10584;50.854;12.902;2023-04-06T08:51:23;15.17;;;6.10;;
20846;SDS011;10584;50.854;12.902;2023-04-06T08:56:48;10.57;;;6.53;;
20846;SDS011;10584;50.854;12.902;2023-04-06T09:02:11;15.80;;;6.83;;
20846;SDS011;10584;50.854;12.902;2023-04-06T09:07:39;10.43;;;6.33;;
20846;SDS011;10584;50.854;12.902;2023-04-06T09:13:07;19.10;;;6.87;;
20846;SDS011;10584;50.854;12.902;2023-04-06T09:18:35;9.80;;;6.13;;
20846;SDS011;10584;50.854;12.902;2023-04-06T09:24:00;12.50;;;6.70;;
20846;SDS011;10584;50.854;12.902;2023-04-06T09:29:23;11.80;;;6.23;;
20846;SDS011;10584;50.854;12.902;2023-04-06T09:34:47;11.17;;;6.47;;
20846;SDS011;10584;50.854;12.902;2023-04-06T09:40:10;12.67;;;6.90;;
20846;SDS011;10584;50.854;12.902;2023-04-06T09:45:32;11.90;;;6.87;;
20846;SDS011;10584;50.854;12.902;2023-04-06T09:50:55;12.17;;;6.70;;
20846;SDS011;10584;50.854;12.902;2023-04-06T09:56:20;12.37;;;6.97;;
20846;SDS011;10584;50.854;12.902;2023-04-06T10:01:48;11.70;;;6.73;;
20846;SDS011;10584;50.854;12.902;2023-04-06T10:07:11;14.13;;;7.23;;
20846;SDS011;10584;50.854;12.902;2023-04-06T10:12:36;11.40;;;6.80;;
20846;SDS011;10584;50.854;12.902;2023-04-06T10:17:59;11.07;;;6.90;;
20846;SDS011;10584;50.854;12.902;2023-04-06T10:23:35;10.80;;;7.03;;
20846;SDS011;10584;50.854;12.902;2023-04-06T10:29:10;10.77;;;7.00;;
20846;SDS011;10584;50.854;12.902;2023-04-06T10:34:35;10.63;;;6.67;;
20846;SDS011;10584;50.854;12.902;2023-04-06T10:39:56;11.50;;;6.43;;
20846;SDS011;10584;50.854;12.902;2023-04-06T10:45:19;10.73;;;6.50;;
20846;SDS011;10584;50.854;12.902;2023-04-06T10:50:48;10.37;;;6.50;;
20846;SDS011;10584;50.854;12.902;2023-04-06T10:56:11;12.27;;;6.63;;
20846;SDS011;10584;50.854;12.902;2023-04-06T11:01:34;13.13;;;5.80;;
20846;SDS011;10584;50.854;12.902;2023-04-06T11:06:56;9.37;;;6.33;;
20846;SDS011;10584;50.854;12.902;2023-04-06T11:12:25;9.33;;;5.97;;
20846;SDS011;10584;50.854;12.902;2023-04-06T11:17:47;10.17;;;6.37;;
20846;SDS011;10584;50.854;12.902;2023-04-06T11:23:09;11.57;;;6.80;;
20846;SDS011;10584;50.854;12.902;2023-04-06T11:28:30;9.23;;;5.97;;
20846;SDS011;10584;50.854;12.902;2023-04-06T11:33:56;8.97;;;5.87;;
20846;SDS011;10584;50.854;12.902;2023-04-06T11:39:21;11.30;;;6.50;;
20846;SDS011;10584;50.854;12.902;2023-04-06T11:44:44;10.73;;;6.10;;
20846;SDS011;10584;50.854;12.902;2023-04-06T11:50:10;12.20;;;5.90;;
20846;SDS011;10584;50.854;12.902;2023-04-06T11:55:39;11.60;;;6.33;;
20846;SDS011;10584;50.854;12.902;2023-04-06T12:01:04;10.20;;;6.87;;
20846;SDS011;10584;50.854;12.902;2023-04-06T12:06:25;10.00;;;5.90;;
20846;SDS011;10584;50.854;12.902;2023-04-06T12:11:47;9.87;;;5.67;;
20846;SDS011;10584;50.854;12.902;2023-04-06T12:17:08;9.00;;;6.03;;
20846;SDS011;10584;50.854;12.902;2023-04-06T12:22:30;9.17;;;5.40;;
20846;SDS011;10584;50.854;12.902;2023-04-06T12:27:52;10.23;;;5.43;;
20846;SDS011;10584;50.854;12.902;2023-04-06T12:33:13;10.00;;;5.63;;
20846;SDS011;10584;50.854;12.902;2023-04-06T12:38:35;10.33;;;5.50;;
20846;SDS011;10584;50.854;12.902;2023-04-06T12:44:01;11.20;;;6.20;;
20846;SDS011;10584;50.854;12.902;2023-04-06T12:49:22;10.17;;;5.97;;
20846;SDS011;10584;50.854;12.902;2023-04-06T12:54:44;10.43;;;6.60;;
20846;SDS011;10584;50.854;12.902;2023-04-06T13:00:08;9.67;;;5.97;;
20846;SDS011;10584;50.854;12.902;2023-04-06T13:05:30;8.80;;;5.70;;
20846;SDS011;10584;50.854;12.902;2023-04-06T13:10:52;9.77;;;6.53;;
20846;SDS011;10584;50.854;12.902;2023-04-06T13:16:15;11.60;;;6.73;;
20846;SDS011;10584;50.854;12.902;2023-04-06T13:21:37;11.37;;;6.30;;
20846;SDS011;10584;50.854;12.902;2023-04-06T13:26:59;9.90;;;6.50;;
20846;SDS011;10584;50.854;12.902;2023-04-06T13:32:20;11.27;;;6.60;;
20846;SDS011;10584;50.854;12.902;2023-04-06T13:37:42;10.67;;;6.37;;
20846;SDS011;10584;50.854;12.902;2023-04-06T13:43:04;11.13;;;6.83;;
20846;SDS011;10584;50.854;12.902;2023-04-06T13:48:26;11.97;;;7.23;;
20846;SDS011;10584;50.854;12.902;2023-04-06T13:53:48;9.13;;;6.30;;
20846;SDS011;10584;50.854;12.902;2023-04-06T13:59:12;10.27;;;6.80;;
20846;SDS011;10584;50.854;12.902;2023-04-06T14:04:35;11.13;;;6.83;;
20846;SDS011;10584;50.854;12.902;2023-04-06T14:09:57;10.60;;;6.23;;
20846;SDS011;10584;50.854;12.902;2023-04-06T14:15:19;13.37;;;6.13;;
20846;SDS011;10584;50.854;12.902;2023-04-06T14:20:42;13.23;;;7.70;;
20846;SDS011;10584;50.854;12.902;2023-04-06T14:26:04;15.70;;;7.70;;
20846;SDS011;10584;50.854;12.902;2023-04-06T14:31:27;10.60;;;6.93;;
20846;SDS011;10584;50.854;12.902;2023-04-06T14:36:48;12.67;;;7.00;;
20846;SDS011;10584;50.854;12.902;2023-04-06T14:42:10;10.73;;;6.53;;
20846;SDS011;10584;50.854;12.902;2023-04-06T14:47:31;11.00;;;7.17;;
20846;SDS011;10584;50.854;12.902;2023-04-06T14:52:53;12.17;;;7.23;;
20846;SDS011;10584;50.854;12.902;2023-04-06T14:58:14;14.23;;;7.43;;
20846;SDS011;10584;50.854;12.902;2023-04-06T15:03:36;11.90;;;7.60;;
20846;SDS011;10584;50.854;12.902;2023-04-06T15:08:58;10.57;;;7.20;;
20846;SDS011;10584;50.854;12.902;2023-04-06T15:14:19;15.93;;;9.40;;
20846;SDS011;10584;50.854;12.902;2023-04-06T15:19:41;12.20;;;7.93;;
20846;SDS011;10584;50.854;12.902;2023-04-06T15:25:02;12.67;;;8.30;;
20846;SDS011;10584;50.854;12.902;2023-04-06T15:30:24;14.07;;;8.53;;
20846;SDS011;10584;50.854;12.902;2023-04-06T15:35:46;14.33;;;8.73;;
20846;SDS011;10584;50.854;12.902;2023-04-06T15:41:07;13.73;;;8.40;;
20846;SDS011;10584;50.854;12.902;2023-04-06T15:46:30;12.23;;;7.60;;
20846;SDS011;10584;50.854;12.902;2023-04-06T15:51:52;13.80;;;8.13;;
20846;SDS011;10584;50.854;12.902;2023-04-06T15:57:13;13.37;;;8.00;;
20846;SDS011;10584;50.854;12.902;2023-04-06T16:02:35;15.87;;;8.40;;
20846;SDS011;10584;50.854;12.902;2023-04-06T16:07:57;13.93;;;8.63;;
20846;SDS011;10584;50.854;12.902;2023-04-06T16:13:18;15.13;;;8.83;;
20846;SDS011;10584;50.854;12.902;2023-04-06T16:18:40;16.60;;;9.00;;
20846;SDS011;10584;50.854;12.902;2023-04-06T16:24:04;13.70;;;8.60;;
20846;SDS011;10584;50.854;12.902;2023-04-06T16:29:26;13.47;;;8.33;;
20846;SDS011;10584;50.854;12.902;2023-04-06T16:34:48;21.27;;;12.03;;
20846;SDS011;10584;50.854;12.902;2023-04-06T16:40:11;13.03;;;9.00;;
20846;SDS011;10584;50.854;12.902;2023-04-06T16:45:34;16.63;;;9.03;;
20846;SDS011;10584;50.854;12.902;2023-04-06T16:50:56;13.17;;;8.33;;
20846;SDS011;10584;50.854;12.902;2023-04-06T16:56:17;16.93;;;9.37;;
20846;SDS011;10584;50.854;12.902;2023-04-06T17:01:39;16.47;;;9.97;;
20846;SDS011;10584;50.854;12.902;2023-04-06T17:07:01;18.23;;;10.07;;
20846;SDS011;10584;50.854;12.902;2023-04-06T17:12:23;18.17;;;10.57;;
20846;SDS011;10584;50.854;12.902;2023-04-06T17:17:44;17.87;;;10.53;;
20846;SDS011;10584;50.854;12.902;2023-04-06T17:23:06;18.33;;;11.20;;
20846;SDS011;10584;50.854;12.902;2023-04-06T17:28:27;15.43;;;10.00;;
20846;SDS011;10584;50.854;12.902;2023-04-06T17:33:49;19.50;;;10.70;;
20846;SDS011;10584;50.854;12.902;2023-04-06T17:39:11;17.17;;;10.60;;
20846;SDS011;10584;50.854;12.902;2023-04-06T17:44:33;17.10;;;10.67;;
20846;SDS011;10584;50.854;12.902;2023-04-06T17:49:54;20.00;;;11.47;;
20846;SDS011;10584;50.854;12.902;2023-04-06T17:55:16;15.97;;;10.60;;
20846;SDS011;10584;50.854;12.902;2023-04-06T18:00:40;18.70;;;11.37;;
20846;SDS011;10584;50.854;12.902;2023-04-06T18:06:11;23.73;;;12.60;;
20846;SDS011;10584;50.854;12.902;2023-04-06T18:11:34;20.30;;;11.67;;
20846;SDS011;10584;50.854;12.902;2023-04-06T18:16:55;22.80;;;13.13;;
20846;SDS011;10584;50.854;12.902;2023-04-06T18:22:17;22.07;;;12.07;;
20846;SDS011;10584;50.854;12.902;2023-04-06T18:27:39;25.57;;;14.07;;
20846;SDS011;10584;50.854;12.902;2023-04-06T18:33:01;34.23;;;16.17;;
20846;SDS011;10584;50.854;12.902;2023-04-06T18:38:23;25.20;;;13.83;;
20846;SDS011;10584;50.854;12.902;2023-04-06T18:43:45;22.33;;;11.90;;
20846;SDS011;10584;50.854;12.902;2023-04-06T18:49:06;22.73;;;12.03;;
20846;SDS011;10584;50.854;12.902;2023-04-06T18:54:27;25.33;;;12.00;;
20846;SDS011;10584;50.854;12.902;2023-04-06T18:59:49;19.83;;;11.80;;
20846;SDS011;10584;50.854;12.902;2023-04-06T19:05:11;20.17;;;10.83;;
20846;SDS011;10584;50.854;12.902;2023-04-06T19:10:33;20.50;;;11.20;;
20846;SDS011;10584;50.854;12.902;2023-04-06T19:15:56;25.80;;;12.47;;
20846;SDS011;10584;50.854;12.902;2023-04-06T19:21:18;26.43;;;12.57;;
20846;SDS011;10584;50.854;12.902;2023-04-06T19:26:41;28.20;;;14.17;;
20846;SDS011;10584;50.854;12.902;2023-04-06T19:32:03;23.07;;;12.23;;
20846;SDS011;10584;50.854;12.902;2023-04-06T19:37:27;26.87;;;12.77;;
20846;SDS011;10584;50.854;12.902;2023-04-06T19:42:49;26.70;;;12.60;;
20846;SDS011;10584;50.854;12.902;2023-04-06T19:48:10;29.60;;;14.10;;
20846;SDS011;10584;50.854;12.902;2023-04-06T19:53:31;27.40;;;13.57;;
20846;SDS011;10584;50.854;12.902;2023-04-06T19:58:53;25.43;;;12.90;;
20846;SDS011;10584;50.854;12.902;2023-04-06T20:04:14;28.53;;;13.73;;
20846;SDS011;10584;50.854;12.902;2023-04-06T20:09:36;27.60;;;12.87;;
20846;SDS011;10584;50.854;12.902;2023-04-06T20:14:58;25.80;;;13.40;;
20846;SDS011;10584;50.854;12.902;2023-04-06T20:20:19;29.17;;;12.80;;
20846;SDS011;10584;50.854;12.902;2023-04-06T20:25:41;28.37;;;13.10;;
20846;SDS011;10584;50.854;12.902;2023-04-06T20:31:02;35.63;;;12.97;;
20846;SDS011;10584;50.854;12.902;2023-04-06T20:36:24;30.97;;;13.33;;
20846;SDS011;10584;50.854;12.902;2023-04-06T20:41:47;28.70;;;12.23;;
20846;SDS011;10584;50.854;12.902;2023-04-06T20:47:10;25.93;;;11.73;;
20846;SDS011;10584;50.854;12.902;2023-04-06T20:52:32;27.60;;;11.70;;
20846;SDS011;10584;50.854;12.902;2023-04-06T20:57:53;41.13;;;13.37;;
20846;SDS011;10584;50.854;12.902;2023-04-06T21:03:15;28.40;;;12.40;;
20846;SDS011;10584;50.854;12.902;2023-04-06T21:08:37;29.67;;;12.40;;
20846;SDS011;10584;50.854;12.902;2023-04-06T21:13:58;28.43;;;11.30;;
20846;SDS011;10584;50.854;12.902;2023-04-06T21:19:20;23.83;;;10.63;;
20846;SDS011;10584;50.854;12.902;2023-04-06T21:24:43;27.90;;;11.57;;
20846;SDS011;10584;50.854;12.902;2023-04-06T21:30:05;21.97;;;9.87;;
20846;SDS011;10584;50.854;12.902;2023-04-06T21:35:27;33.67;;;12.00;;
20846;SDS011;10584;50.854;12.902;2023-04-06T21:40:55;32.27;;;11.60;;
20846;SDS011;10584;50.854;12.902;2023-04-06T21:46:16;26.00;;;10.53;;
20846;SDS011;10584;50.854;12.902;2023-04-06T21:51:38;21.47;;;10.03;;
20846;SDS011;10584;50.854;12.902;2023-04-06T21:57:00;26.10;;;10.47;;
20846;SDS011;10584;50.854;12.902;2023-04-06T22:02:22;24.63;;;10.50;;
20846;SDS011;10584;50.854;12.902;2023-04-06T22:07:44;26.23;;;11.30;;
20846;SDS011;10584;50.854;12.902;2023-04-06T22:13:05;24.87;;;10.40;;
20846;SDS011;10584;50.854;12.902;2023-04-06T22:18:27;21.20;;;10.30;;
20846;SDS011;10584;50.854;12.902;2023-04-06T22:23:49;30.70;;;11.10;;
20846;SDS011;10584;50.854;12.902;2023-04-06T22:29:10;36.03;;;12.13;;
20846;SDS011;10584;50.854;12.902;2023-04-06T22:34:32;19.17;;;10.07;;
20846;SDS011;10584;50.854;12.902;2023-04-06T22:39:53;31.67;;;12.43;;
20846;SDS011;10584;50.854;12.902;2023-04-06T22:45:15;41.77;;;13.00;;
20846;SDS011;10584;50.854;12.902;2023-04-06T22:50:37;35.97;;;13.17;;
20846;SDS011;10584;50.854;12.902;2023-04-06T22:55:58;30.23;;;11.63;;
20846;SDS011;10584;50.854;12.902;2023-04-06T23:01:20;27.57;;;11.63;;
20846;SDS011;10584;50.854;12.902;2023-04-06T23:06:41;27.67;;;12.27;;
20846;SDS011;10584;50.854;12.902;2023-04-06T23:12:03;33.30;;;12.50;;
20846;SDS011;10584;50.854;12.902;2023-04-06T23:17:25;35.20;;;13.30;;
20846;SDS011;10584;50.854;12.902;2023-04-06T23:22:46;30.70;;;12.63;;
20846;SDS011;10584;50.854;12.902;2023-04-06T23:28:07;35.17;;;13.13;;
20846;SDS011;10584;50.854;12.902;2023-04-06T23:33:29;29.30;;;12.30;;
20846;SDS011;10584;50.854;12.902;2023-04-06T23:38:53;25.83;;;12.37;;
20846;SDS011;10584;50.854;12.902;2023-04-06T23:44:15;28.73;;;12.83;;
20846;SDS011;10584;50.854;12.902;2023-04-06T23:49:37;28.50;;;12.30;;
20846;SDS011;10584;50.854;12.902;2023-04-06T23:54:58;32.47;;;12.73;;
